sensor_id;sensor_type;location;lat;lon;timestamp;P1;durP1;ratioP1;P2;durP2;ratioP2
3311;SDS011;1668;49.648;8.570;2023-07-30T00:02:18;4.10;;;3.67;;
3311;SDS011;1668;49.648;8.570;2023-07-30T00:04:45;8.37;;;3.73;;
3311;SDS011;1668;49.648;8.570;2023-07-30T00:07:12;4.73;;;3.20;;
3311;SDS011;1668;49.648;8.570;2023-07-30T00:09:39;9.13;;;3.40;;
3311;SDS011;1668;49.648;8.570;2023-07-30T00:12:07;4.70;;;3.40;;
3311;SDS011;1668;49.648;8.570;2023-07-30T00:14:36;8.77;;;3.73;;
3311;SDS011;1668;49.648;8.570;2023-07-30T00:17:03;6.00;;;3.90;;
3311;SDS011;1668;49.648;8.570;2023-07-30T00:19:30;7.27;;;3.37;;
3311;SDS011;1668;49.648;8.570;2023-07-30T00:21:56;8.03;;;3.43;;
3311;SDS011;1668;49.648;8.570;2023-07-30T00:24:23;7.23;;;3.70;;
3311;SDS011;1668;49.648;8.570;2023-07-30T00:26:50;4.50;;;3.53;;
3311;SDS011;1668;49.648;8.570;2023-07-30T00:29:17;6.33;;;3.40;;
3311;SDS011;1668;49.648;8.570;2023-07-30T00:31:46;8.60;;;3.13;;
3311;SDS011;1668;49.648;8.570;2023-07-30T00:34:12;4.60;;;3.30;;
3311;SDS011;1668;49.648;8.570;2023-07-30T00:36:39;6.00;;;3.43;;
3311;SDS011;1668;49.648;8.570;2023-07-30T00:39:06;5.87;;;3.40;;
3311;SDS011;1668;49.648;8.570;2023-07-30T00:41:36;4.87;;;3.17;;
3311;SDS011;1668;49.648;8.570;2023-07-30T00:44:03;3.60;;;2.93;;
3311;SDS011;1668;49.648;8.570;2023-07-30T00:46:30;4.33;;;3.33;;
3311;SDS011;1668;49.648;8.570;2023-07-30T00:48:58;4.80;;;2.87;;
3311;SDS011;1668;49.648;8.570;2023-07-30T00:51:25;5.83;;;3.40;;
3311;SDS011;1668;49.648;8.570;2023-07-30T00:53:53;5.30;;;2.87;;
3311;SDS011;1668;49.648;8.570;2023-07-30T00:56:20;6.87;;;3.30;;
3311;SDS011;1668;49.648;8.570;2023-07-30T00:58:47;4.20;;;3.00;;
3311;SDS011;1668;49.648;8.570;2023-07-30T01:01:15;4.37;;;2.70;;
3311;SDS011;1668;49.648;8.570;2023-07-30T01:03:41;5.00;;;2.40;;
3311;SDS011;1668;49.648;8.570;2023-07-30T01:06:10;4.47;;;2.27;;
3311;SDS011;1668;49.648;8.570;2023-07-30T01:08:37;5.73;;;2.40;;
3311;SDS011;1668;49.648;8.570;2023-07-30T01:11:04;6.13;;;2.53;;
3311;SDS011;1668;49.648;8.570;2023-07-30T01:13:33;2.93;;;2.43;;
3311;SDS011;1668;49.648;8.570;2023-07-30T01:16:01;3.90;;;2.57;;
3311;SDS011;1668;49.648;8.570;2023-07-30T01:18:29;4.00;;;2.20;;
3311;SDS011;1668;49.648;8.570;2023-07-30T01:20:58;8.10;;;2.70;;
3311;SDS011;1668;49.648;8.570;2023-07-30T01:23:26;4.10;;;1.80;;
3311;SDS011;1668;49.648;8.570;2023-07-30T01:25:55;3.70;;;2.77;;
3311;SDS011;1668;49.648;8.570;2023-07-30T01:28:28;4.87;;;2.93;;
3311;SDS011;1668;49.648;8.570;2023-07-30T01:31:00;3.03;;;2.20;;
3311;SDS011;1668;49.648;8.570;2023-07-30T01:33:29;6.23;;;2.33;;
3311;SDS011;1668;49.648;8.570;2023-07-30T01:35:56;3.47;;;2.30;;
3311;SDS011;1668;49.648;8.570;2023-07-30T01:38:25;2.63;;;2.30;;
3311;SDS011;1668;49.648;8.570;2023-07-30T01:40:52;2.80;;;2.10;;
3311;SDS011;1668;49.648;8.570;2023-07-30T01:43:19;3.30;;;2.00;;
3311;SDS011;1668;49.648;8.570;2023-07-30T01:45:46;4.53;;;2.10;;
3311;SDS011;1668;49.648;8.570;2023-07-30T01:48:13;3.27;;;1.77;;
3311;SDS011;1668;49.648;8.570;2023-07-30T01:50:40;4.43;;;1.63;;
3311;SDS011;1668;49.648;8.570;2023-07-30T01:53:09;2.70;;;1.50;;
3311;SDS011;1668;49.648;8.570;2023-07-30T01:55:36;3.17;;;2.00;;
3311;SDS011;1668;49.648;8.570;2023-07-30T01:58:04;3.07;;;1.83;;
3311;SDS011;1668;49.648;8.570;2023-07-30T02:00:30;6.30;;;1.97;;
3311;SDS011;1668;49.648;8.570;2023-07-30T02:02:57;9.70;;;2.17;;
3311;SDS011;1668;49.648;8.570;2023-07-30T02:05:24;1.93;;;1.60;;
3311;SDS011;1668;49.648;8.570;2023-07-30T02:07:51;2.37;;;1.77;;
3311;SDS011;1668;49.648;8.570;2023-07-30T02:10:19;1.80;;;1.47;;
3311;SDS011;1668;49.648;8.570;2023-07-30T02:12:46;2.20;;;1.70;;
3311;SDS011;1668;49.648;8.570;2023-07-30T02:15:12;3.17;;;1.87;;
3311;SDS011;1668;49.648;8.570;2023-07-30T02:17:39;2.50;;;1.57;;
3311;SDS011;1668;49.648;8.570;2023-07-30T02:20:07;3.13;;;1.90;;
3311;SDS011;1668;49.648;8.570;2023-07-30T02:22:35;2.40;;;1.70;;
3311;SDS011;1668;49.648;8.570;2023-07-30T02:25:02;2.40;;;1.90;;
3311;SDS011;1668;49.648;8.570;2023-07-30T02:27:30;3.73;;;2.10;;
3311;SDS011;1668;49.648;8.570;2023-07-30T02:29:57;3.93;;;2.10;;
3311;SDS011;1668;49.648;8.570;2023-07-30T02:32:24;4.20;;;2.50;;
3311;SDS011;1668;49.648;8.570;2023-07-30T02:34:51;3.70;;;2.07;;
3311;SDS011;1668;49.648;8.570;2023-07-30T02:37:17;3.43;;;2.03;;
3311;SDS011;1668;49.648;8.570;2023-07-30T02:39:44;5.40;;;2.10;;
3311;SDS011;1668;49.648;8.570;2023-07-30T02:42:11;3.47;;;2.30;;
3311;SDS011;1668;49.648;8.570;2023-07-30T02:44:39;4.73;;;2.23;;
3311;SDS011;1668;49.648;8.570;2023-07-30T02:47:06;2.80;;;2.00;;
3311;SDS011;1668;49.648;8.570;2023-07-30T02:49:33;5.23;;;2.27;;
3311;SDS011;1668;49.648;8.570;2023-07-30T02:52:00;4.00;;;2.40;;
3311;SDS011;1668;49.648;8.570;2023-07-30T02:54:26;3.73;;;2.43;;
3311;SDS011;1668;49.648;8.570;2023-07-30T02:56:53;3.43;;;2.03;;
3311;SDS011;1668;49.648;8.570;2023-07-30T02:59:20;3.40;;;1.97;;
3311;SDS011;1668;49.648;8.570;2023-07-30T03:01:48;3.03;;;1.93;;
3311;SDS011;1668;49.648;8.570;2023-07-30T03:04:15;3.20;;;2.30;;
3311;SDS011;1668;49.648;8.570;2023-07-30T03:06:42;5.13;;;2.37;;
3311;SDS011;1668;49.648;8.570;2023-07-30T03:09:08;4.10;;;2.00;;
3311;SDS011;1668;49.648;8.570;2023-07-30T03:11:35;4.73;;;2.70;;
3311;SDS011;1668;49.648;8.570;2023-07-30T03:14:02;2.60;;;2.17;;
3311;SDS011;1668;49.648;8.570;2023-07-30T03:16:29;5.87;;;2.20;;
3311;SDS011;1668;49.648;8.570;2023-07-30T03:18:57;3.90;;;2.07;;
3311;SDS011;1668;49.648;8.570;2023-07-30T03:21:24;4.70;;;2.17;;
3311;SDS011;1668;49.648;8.570;2023-07-30T03:23:51;3.73;;;2.40;;
3311;SDS011;1668;49.648;8.570;2023-07-30T03:26:18;3.87;;;2.40;;
3311;SDS011;1668;49.648;8.570;2023-07-30T03:28:45;3.83;;;2.53;;
3311;SDS011;1668;49.648;8.570;2023-07-30T03:31:11;3.70;;;2.50;;
3311;SDS011;1668;49.648;8.570;2023-07-30T03:33:38;4.13;;;2.70;;
3311;SDS011;1668;49.648;8.570;2023-07-30T03:36:10;5.90;;;2.40;;
3311;SDS011;1668;49.648;8.570;2023-07-30T03:38:37;5.40;;;2.47;;
3311;SDS011;1668;49.648;8.570;2023-07-30T03:41:04;5.53;;;2.80;;
3311;SDS011;1668;49.648;8.570;2023-07-30T03:43:31;3.57;;;2.53;;
3311;SDS011;1668;49.648;8.570;2023-07-30T03:45:58;3.97;;;2.30;;
3311;SDS011;1668;49.648;8.570;2023-07-30T03:48:25;4.43;;;2.60;;
3311;SDS011;1668;49.648;8.570;2023-07-30T03:50:52;4.63;;;2.63;;
3311;SDS011;1668;49.648;8.570;2023-07-30T03:53:20;4.13;;;2.83;;
3311;SDS011;1668;49.648;8.570;2023-07-30T03:55:47;5.63;;;3.43;;
3311;SDS011;1668;49.648;8.570;2023-07-30T03:58:14;3.77;;;3.20;;
3311;SDS011;1668;49.648;8.570;2023-07-30T04:00:41;4.30;;;2.50;;
3311;SDS011;1668;49.648;8.570;2023-07-30T04:03:08;7.40;;;2.93;;
3311;SDS011;1668;49.648;8.570;2023-07-30T04:05:35;5.23;;;2.97;;
3311;SDS011;1668;49.648;8.570;2023-07-30T04:08:02;5.13;;;2.80;;
3311;SDS011;1668;49.648;8.570;2023-07-30T04:10:30;5.00;;;3.30;;
3311;SDS011;1668;49.648;8.570;2023-07-30T04:12:57;3.60;;;2.83;;
3311;SDS011;1668;49.648;8.570;2023-07-30T04:15:24;5.53;;;2.80;;
3311;SDS011;1668;49.648;8.570;2023-07-30T04:17:51;4.60;;;2.63;;
3311;SDS011;1668;49.648;8.570;2023-07-30T04:20:18;4.13;;;2.53;;
3311;SDS011;1668;49.648;8.570;2023-07-30T04:22:45;3.70;;;2.80;;
3311;SDS011;1668;49.648;8.570;2023-07-30T04:25:12;4.73;;;2.70;;
3311;SDS011;1668;49.648;8.570;2023-07-30T04:27:40;5.53;;;2.67;;
3311;SDS011;1668;49.648;8.570;2023-07-30T04:30:07;4.30;;;3.03;;
3311;SDS011;1668;49.648;8.570;2023-07-30T04:32:34;4.50;;;2.77;;
3311;SDS011;1668;49.648;8.570;2023-07-30T04:35:01;3.77;;;2.77;;
3311;SDS011;1668;49.648;8.570;2023-07-30T04:37:29;4.57;;;3.00;;
3311;SDS011;1668;49.648;8.570;2023-07-30T04:39:56;8.67;;;3.40;;
3311;SDS011;1668;49.648;8.570;2023-07-30T04:42:23;4.57;;;3.37;;
3311;SDS011;1668;49.648;8.570;2023-07-30T04:44:51;5.40;;;2.90;;
3311;SDS011;1668;49.648;8.570;2023-07-30T04:47:18;6.73;;;3.27;;
3311;SDS011;1668;49.648;8.570;2023-07-30T04:49:45;4.57;;;3.10;;
3311;SDS011;1668;49.648;8.570;2023-07-30T04:52:12;5.07;;;3.13;;
3311;SDS011;1668;49.648;8.570;2023-07-30T04:54:38;4.93;;;2.43;;
3311;SDS011;1668;49.648;8.570;2023-07-30T04:57:05;4.73;;;2.70;;
3311;SDS011;1668;49.648;8.570;2023-07-30T04:59:32;3.87;;;3.07;;
3311;SDS011;1668;49.648;8.570;2023-07-30T05:02:01;4.77;;;3.37;;
3311;SDS011;1668;49.648;8.570;2023-07-30T05:04:28;3.30;;;2.63;;
3311;SDS011;1668;49.648;8.570;2023-07-30T05:06:54;3.60;;;2.87;;
3311;SDS011;1668;49.648;8.570;2023-07-30T05:09:21;6.93;;;3.30;;
3311;SDS011;1668;49.648;8.570;2023-07-30T05:11:48;4.33;;;3.53;;
3311;SDS011;1668;49.648;8.570;2023-07-30T05:14:15;6.10;;;3.30;;
3311;SDS011;1668;49.648;8.570;2023-07-30T05:16:42;7.73;;;3.87;;
3311;SDS011;1668;49.648;8.570;2023-07-30T05:19:10;5.17;;;3.60;;
3311;SDS011;1668;49.648;8.570;2023-07-30T05:21:37;5.33;;;4.07;;
3311;SDS011;1668;49.648;8.570;2023-07-30T05:24:04;7.37;;;4.13;;
3311;SDS011;1668;49.648;8.570;2023-07-30T05:26:31;5.90;;;4.37;;
3311;SDS011;1668;49.648;8.570;2023-07-30T05:28:57;6.90;;;4.03;;
3311;SDS011;1668;49.648;8.570;2023-07-30T05:31:24;5.33;;;4.50;;
3311;SDS011;1668;49.648;8.570;2023-07-30T05:33:51;5.33;;;4.07;;
3311;SDS011;1668;49.648;8.570;2023-07-30T05:36:19;4.33;;;3.80;;
3311;SDS011;1668;49.648;8.570;2023-07-30T05:38:46;4.80;;;4.10;;
3311;SDS011;1668;49.648;8.570;2023-07-30T05:41:13;4.47;;;3.70;;
3311;SDS011;1668;49.648;8.570;2023-07-30T05:43:40;4.40;;;3.70;;
3311;SDS011;1668;49.648;8.570;2023-07-30T05:46:07;4.43;;;4.03;;
3311;SDS011;1668;49.648;8.570;2023-07-30T05:48:34;4.80;;;4.30;;
3311;SDS011;1668;49.648;8.570;2023-07-30T05:51:01;8.50;;;4.47;;
3311;SDS011;1668;49.648;8.570;2023-07-30T05:53:29;6.77;;;4.43;;
3311;SDS011;1668;49.648;8.570;2023-07-30T05:55:56;7.90;;;4.30;;
3311;SDS011;1668;49.648;8.570;2023-07-30T05:58:23;8.30;;;4.80;;
3311;SDS011;1668;49.648;8.570;2023-07-30T06:00:50;5.30;;;4.30;;
3311;SDS011;1668;49.648;8.570;2023-07-30T06:03:17;5.37;;;4.57;;
3311;SDS011;1668;49.648;8.570;2023-07-30T06:05:44;4.83;;;4.00;;
3311;SDS011;1668;49.648;8.570;2023-07-30T06:08:11;6.93;;;3.77;;
3311;SDS011;1668;49.648;8.570;2023-07-30T06:10:39;10.53;;;4.23;;
3311;SDS011;1668;49.648;8.570;2023-07-30T06:13:06;5.87;;;4.40;;
3311;SDS011;1668;49.648;8.570;2023-07-30T06:15:33;4.63;;;4.10;;
3311;SDS011;1668;49.648;8.570;2023-07-30T06:18:00;4.73;;;4.23;;
3311;SDS011;1668;49.648;8.570;2023-07-30T06:20:28;5.60;;;4.50;;
3311;SDS011;1668;49.648;8.570;2023-07-30T06:22:55;5.20;;;3.80;;
3311;SDS011;1668;49.648;8.570;2023-07-30T06:25:22;6.83;;;3.97;;
3311;SDS011;1668;49.648;8.570;2023-07-30T06:27:50;6.00;;;4.27;;
3311;SDS011;1668;49.648;8.570;2023-07-30T06:30:17;6.23;;;4.17;;
3311;SDS011;1668;49.648;8.570;2023-07-30T06:32:44;6.23;;;4.07;;
3311;SDS011;1668;49.648;8.570;2023-07-30T06:35:11;6.50;;;4.23;;
3311;SDS011;1668;49.648;8.570;2023-07-30T06:37:38;4.37;;;3.67;;
3311;SDS011;1668;49.648;8.570;2023-07-30T06:40:05;6.53;;;3.30;;
3311;SDS011;1668;49.648;8.570;2023-07-30T06:42:33;5.63;;;3.43;;
3311;SDS011;1668;49.648;8.570;2023-07-30T06:45:01;3.90;;;2.90;;
3311;SDS011;1668;49.648;8.570;2023-07-30T06:47:29;3.90;;;3.10;;
3311;SDS011;1668;49.648;8.570;2023-07-30T06:49:55;4.20;;;3.20;;
3311;SDS011;1668;49.648;8.570;2023-07-30T06:52:22;4.13;;;3.30;;
3311;SDS011;1668;49.648;8.570;2023-07-30T06:54:49;4.00;;;3.33;;
3311;SDS011;1668;49.648;8.570;2023-07-30T06:57:16;3.90;;;3.27;;
3311;SDS011;1668;49.648;8.570;2023-07-30T06:59:43;3.90;;;3.50;;
3311;SDS011;1668;49.648;8.570;2023-07-30T07:02:11;6.03;;;3.23;;
3311;SDS011;1668;49.648;8.570;2023-07-30T07:04:38;6.13;;;3.20;;
3311;SDS011;1668;49.648;8.570;2023-07-30T07:07:05;3.97;;;3.33;;
3311;SDS011;1668;49.648;8.570;2023-07-30T07:09:32;4.57;;;2.97;;
3311;SDS011;1668;49.648;8.570;2023-07-30T07:11:58;4.33;;;3.27;;
3311;SDS011;1668;49.648;8.570;2023-07-30T07:14:26;5.57;;;3.60;;
3311;SDS011;1668;49.648;8.570;2023-07-30T07:16:53;4.40;;;3.13;;
3311;SDS011;1668;49.648;8.570;2023-07-30T07:19:22;3.50;;;3.20;;
3311;SDS011;1668;49.648;8.570;2023-07-30T07:21:49;6.73;;;3.53;;
3311;SDS011;1668;49.648;8.570;2023-07-30T07:24:16;5.63;;;3.37;;
3311;SDS011;1668;49.648;8.570;2023-07-30T07:26:43;3.90;;;3.00;;
3311;SDS011;1668;49.648;8.570;2023-07-30T07:29:10;3.00;;;2.57;;
3311;SDS011;1668;49.648;8.570;2023-07-30T07:31:37;3.80;;;3.10;;
3311;SDS011;1668;49.648;8.570;2023-07-30T07:34:03;3.37;;;3.00;;
3311;SDS011;1668;49.648;8.570;2023-07-30T07:36:32;5.60;;;3.30;;
3311;SDS011;1668;49.648;8.570;2023-07-30T07:39:00;4.00;;;2.70;;
3311;SDS011;1668;49.648;8.570;2023-07-30T07:41:27;3.33;;;2.93;;
3311;SDS011;1668;49.648;8.570;2023-07-30T07:43:54;4.70;;;3.40;;
3311;SDS011;1668;49.648;8.570;2023-07-30T07:46:21;4.00;;;2.90;;
3311;SDS011;1668;49.648;8.570;2023-07-30T07:48:48;4.73;;;3.00;;
3311;SDS011;1668;49.648;8.570;2023-07-30T07:51:15;5.10;;;3.60;;
3311;SDS011;1668;49.648;8.570;2023-07-30T07:53:43;6.23;;;3.53;;
3311;SDS011;1668;49.648;8.570;2023-07-30T07:56:10;3.33;;;2.60;;
3311;SDS011;1668;49.648;8.570;2023-07-30T07:58:37;5.50;;;2.60;;
3311;SDS011;1668;49.648;8.570;2023-07-30T08:01:03;3.73;;;3.00;;
3311;SDS011;1668;49.648;8.570;2023-07-30T08:03:30;3.30;;;2.20;;
3311;SDS011;1668;49.648;8.570;2023-07-30T08:05:57;6.27;;;2.40;;
3311;SDS011;1668;49.648;8.570;2023-07-30T08:08:25;3.53;;;2.50;;
3311;SDS011;1668;49.648;8.570;2023-07-30T08:10:53;4.13;;;2.27;;
3311;SDS011;1668;49.648;8.570;2023-07-30T08:13:20;3.77;;;2.23;;
3311;SDS011;1668;49.648;8.570;2023-07-30T08:15:47;3.10;;;2.20;;
3311;SDS011;1668;49.648;8.570;2023-07-30T08:18:14;2.97;;;2.13;;
3311;SDS011;1668;49.648;8.570;2023-07-30T08:20:41;6.20;;;2.40;;
3311;SDS011;1668;49.648;8.570;2023-07-30T08:23:09;2.67;;;2.03;;
3311;SDS011;1668;49.648;8.570;2023-07-30T08:25:36;4.23;;;2.33;;
3311;SDS011;1668;49.648;8.570;2023-07-30T08:28:04;3.37;;;2.20;;
3311;SDS011;1668;49.648;8.570;2023-07-30T08:30:31;3.53;;;2.40;;
3311;SDS011;1668;49.648;8.570;2023-07-30T08:32:58;3.47;;;2.07;;
3311;SDS011;1668;49.648;8.570;2023-07-30T08:35:24;2.60;;;2.20;;
3311;SDS011;1668;49.648;8.570;2023-07-30T08:37:53;3.60;;;2.10;;
3311;SDS011;1668;49.648;8.570;2023-07-30T08:40:20;2.87;;;2.60;;
3311;SDS011;1668;49.648;8.570;2023-07-30T08:42:48;3.30;;;2.20;;
3311;SDS011;1668;49.648;8.570;2023-07-30T08:45:17;3.10;;;2.10;;
3311;SDS011;1668;49.648;8.570;2023-07-30T08:47:44;3.10;;;2.20;;
3311;SDS011;1668;49.648;8.570;2023-07-30T08:50:12;2.63;;;2.17;;
3311;SDS011;1668;49.648;8.570;2023-07-30T08:52:39;3.90;;;2.10;;
3311;SDS011;1668;49.648;8.570;2023-07-30T08:55:07;2.07;;;1.80;;
3311;SDS011;1668;49.648;8.570;2023-07-30T08:57:34;2.63;;;2.30;;
3311;SDS011;1668;49.648;8.570;2023-07-30T09:00:02;3.10;;;2.23;;
3311;SDS011;1668;49.648;8.570;2023-07-30T09:02:33;3.97;;;2.63;;
3311;SDS011;1668;49.648;8.570;2023-07-30T09:05:03;3.53;;;2.33;;
3311;SDS011;1668;49.648;8.570;2023-07-30T09:07:31;4.40;;;2.57;;
3311;SDS011;1668;49.648;8.570;2023-07-30T09:09:58;2.63;;;2.40;;
3311;SDS011;1668;49.648;8.570;2023-07-30T09:12:25;3.70;;;2.10;;
3311;SDS011;1668;49.648;8.570;2023-07-30T09:14:52;2.83;;;2.10;;
3311;SDS011;1668;49.648;8.570;2023-07-30T09:17:19;2.40;;;1.93;;
3311;SDS011;1668;49.648;8.570;2023-07-30T09:19:48;2.43;;;1.90;;
3311;SDS011;1668;49.648;8.570;2023-07-30T09:22:19;2.83;;;2.00;;
3311;SDS011;1668;49.648;8.570;2023-07-30T09:24:50;3.53;;;1.70;;
3311;SDS011;1668;49.648;8.570;2023-07-30T09:27:21;4.77;;;2.10;;
3311;SDS011;1668;49.648;8.570;2023-07-30T09:29:50;2.33;;;2.13;;
3311;SDS011;1668;49.648;8.570;2023-07-30T09:32:18;2.83;;;1.93;;
3311;SDS011;1668;49.648;8.570;2023-07-30T09:34:46;2.53;;;2.00;;
3311;SDS011;1668;49.648;8.570;2023-07-30T09:37:14;2.63;;;2.13;;
3311;SDS011;1668;49.648;8.570;2023-07-30T09:39:41;2.90;;;1.90;;
3311;SDS011;1668;49.648;8.570;2023-07-30T09:42:09;2.67;;;2.00;;
3311;SDS011;1668;49.648;8.570;2023-07-30T09:44:37;6.27;;;2.17;;
3311;SDS011;1668;49.648;8.570;2023-07-30T09:47:04;2.30;;;1.23;;
3311;SDS011;1668;49.648;8.570;2023-07-30T09:49:35;2.70;;;0.90;;
3311;SDS011;1668;49.648;8.570;2023-07-30T09:52:03;1.53;;;0.87;;
3311;SDS011;1668;49.648;8.570;2023-07-30T09:54:31;1.27;;;0.70;;
3311;SDS011;1668;49.648;8.570;2023-07-30T09:56:58;1.10;;;0.80;;
3311;SDS011;1668;49.648;8.570;2023-07-30T09:59:25;1.80;;;0.90;;
3311;SDS011;1668;49.648;8.570;2023-07-30T10:01:53;1.53;;;0.87;;
3311;SDS011;1668;49.648;8.570;2023-07-30T10:04:21;1.43;;;0.90;;
3311;SDS011;1668;49.648;8.570;2023-07-30T10:06:51;0.93;;;0.70;;
3311;SDS011;1668;49.648;8.570;2023-07-30T10:09:23;2.17;;;0.80;;
3311;SDS011;1668;49.648;8.570;2023-07-30T10:11:52;1.10;;;0.90;;
3311;SDS011;1668;49.648;8.570;2023-07-30T10:14:21;3.63;;;0.90;;
3311;SDS011;1668;49.648;8.570;2023-07-30T10:16:50;1.23;;;0.90;;
3311;SDS011;1668;49.648;8.570;2023-07-30T10:19:21;1.50;;;1.00;;
3311;SDS011;1668;49.648;8.570;2023-07-30T10:21:49;1.93;;;1.17;;
3311;SDS011;1668;49.648;8.570;2023-07-30T10:24:18;1.67;;;0.93;;
3311;SDS011;1668;49.648;8.570;2023-07-30T10:26:46;1.77;;;0.93;;
3311;SDS011;1668;49.648;8.570;2023-07-30T10:29:14;2.27;;;1.20;;
3311;SDS011;1668;49.648;8.570;2023-07-30T10:31:42;2.13;;;1.13;;
3311;SDS011;1668;49.648;8.570;2023-07-30T10:34:13;2.50;;;0.97;;
3311;SDS011;1668;49.648;8.570;2023-07-30T10:36:41;2.73;;;1.00;;
3311;SDS011;1668;49.648;8.570;2023-07-30T10:39:10;3.70;;;1.50;;
3311;SDS011;1668;49.648;8.570;2023-07-30T10:41:38;1.53;;;1.00;;
3311;SDS011;1668;49.648;8.570;2023-07-30T10:44:06;1.80;;;1.10;;
3311;SDS011;1668;49.648;8.570;2023-07-30T10:46:33;1.77;;;1.00;;
3311;SDS011;1668;49.648;8.570;2023-07-30T10:49:00;2.43;;;0.80;;
3311;SDS011;1668;49.648;8.570;2023-07-30T10:51:29;1.80;;;1.23;;
3311;SDS011;1668;49.648;8.570;2023-07-30T10:53:56;2.60;;;1.03;;
3311;SDS011;1668;49.648;8.570;2023-07-30T10:56:23;1.60;;;0.97;;
3311;SDS011;1668;49.648;8.570;2023-07-30T10:58:51;2.77;;;1.10;;
3311;SDS011;1668;49.648;8.570;2023-07-30T11:01:23;1.53;;;1.03;;
3311;SDS011;1668;49.648;8.570;2023-07-30T11:03:51;3.77;;;0.93;;
3311;SDS011;1668;49.648;8.570;2023-07-30T11:06:21;1.77;;;1.13;;
3311;SDS011;1668;49.648;8.570;2023-07-30T11:08:49;2.67;;;1.00;;
3311;SDS011;1668;49.648;8.570;2023-07-30T11:11:16;1.70;;;1.07;;
3311;SDS011;1668;49.648;8.570;2023-07-30T11:13:43;2.07;;;1.40;;
3311;SDS011;1668;49.648;8.570;2023-07-30T11:16:12;2.90;;;1.30;;
3311;SDS011;1668;49.648;8.570;2023-07-30T11:18:41;3.70;;;1.60;;
3311;SDS011;1668;49.648;8.570;2023-07-30T11:21:09;2.57;;;1.13;;
3311;SDS011;1668;49.648;8.570;2023-07-30T11:23:37;2.97;;;1.30;;
3311;SDS011;1668;49.648;8.570;2023-07-30T11:26:07;2.67;;;1.40;;
3311;SDS011;1668;49.648;8.570;2023-07-30T11:28:36;3.80;;;1.70;;
3311;SDS011;1668;49.648;8.570;2023-07-30T11:31:05;2.70;;;1.67;;
3311;SDS011;1668;49.648;8.570;2023-07-30T11:33:32;5.23;;;1.80;;
3311;SDS011;1668;49.648;8.570;2023-07-30T11:36:02;2.10;;;1.33;;
3311;SDS011;1668;49.648;8.570;2023-07-30T11:38:30;2.20;;;1.30;;
3311;SDS011;1668;49.648;8.570;2023-07-30T11:40:58;3.20;;;1.60;;
3311;SDS011;1668;49.648;8.570;2023-07-30T11:43:25;2.90;;;1.40;;
3311;SDS011;1668;49.648;8.570;2023-07-30T11:46:08;3.20;;;1.40;;
3311;SDS011;1668;49.648;8.570;2023-07-30T11:48:37;5.80;;;1.50;;
3311;SDS011;1668;49.648;8.570;2023-07-30T11:51:06;3.30;;;1.50;;
3311;SDS011;1668;49.648;8.570;2023-07-30T11:53:46;2.43;;;1.20;;
3311;SDS011;1668;49.648;8.570;2023-07-30T11:56:18;3.03;;;1.50;;
3311;SDS011;1668;49.648;8.570;2023-07-30T11:58:48;2.87;;;1.30;;
3311;SDS011;1668;49.648;8.570;2023-07-30T12:01:15;3.17;;;1.67;;
3311;SDS011;1668;49.648;8.570;2023-07-30T12:03:43;4.33;;;1.50;;
3311;SDS011;1668;49.648;8.570;2023-07-30T12:06:11;4.80;;;1.57;;
3311;SDS011;1668;49.648;8.570;2023-07-30T12:08:39;3.77;;;1.40;;
3311;SDS011;1668;49.648;8.570;2023-07-30T12:11:06;3.30;;;1.83;;
3311;SDS011;1668;49.648;8.570;2023-07-30T12:13:34;4.00;;;1.60;;
3311;SDS011;1668;49.648;8.570;2023-07-30T12:16:09;3.60;;;1.50;;
3311;SDS011;1668;49.648;8.570;2023-07-30T12:18:37;4.37;;;1.50;;
3311;SDS011;1668;49.648;8.570;2023-07-30T12:21:04;4.70;;;1.90;;
3311;SDS011;1668;49.648;8.570;2023-07-30T12:23:33;5.80;;;2.23;;
3311;SDS011;1668;49.648;8.570;2023-07-30T12:26:00;2.40;;;1.40;;
3311;SDS011;1668;49.648;8.570;2023-07-30T12:28:29;4.10;;;1.63;;
3311;SDS011;1668;49.648;8.570;2023-07-30T12:30:56;4.07;;;1.70;;
3311;SDS011;1668;49.648;8.570;2023-07-30T12:33:23;5.07;;;1.53;;
3311;SDS011;1668;49.648;8.570;2023-07-30T12:35:50;2.10;;;1.40;;
3311;SDS011;1668;49.648;8.570;2023-07-30T12:38:18;4.30;;;1.63;;
3311;SDS011;1668;49.648;8.570;2023-07-30T12:40:46;3.10;;;1.50;;
3311;SDS011;1668;49.648;8.570;2023-07-30T12:43:13;4.13;;;1.40;;
3311;SDS011;1668;49.648;8.570;2023-07-30T12:45:40;5.13;;;1.90;;
3311;SDS011;1668;49.648;8.570;2023-07-30T12:48:07;4.30;;;1.70;;
3311;SDS011;1668;49.648;8.570;2023-07-30T12:50:34;3.50;;;1.40;;
3311;SDS011;1668;49.648;8.570;2023-07-30T12:53:01;8.70;;;1.90;;
3311;SDS011;1668;49.648;8.570;2023-07-30T12:55:27;4.50;;;1.80;;
3311;SDS011;1668;49.648;8.570;2023-07-30T12:57:56;2.70;;;1.43;;
3311;SDS011;1668;49.648;8.570;2023-07-30T13:00:23;5.80;;;1.93;;
3311;SDS011;1668;49.648;8.570;2023-07-30T13:02:50;6.63;;;1.77;;
3311;SDS011;1668;49.648;8.570;2023-07-30T13:05:20;4.00;;;1.50;;
3311;SDS011;1668;49.648;8.570;2023-07-30T13:07:47;3.83;;;1.80;;
3311;SDS011;1668;49.648;8.570;2023-07-30T13:10:14;3.77;;;1.53;;
3311;SDS011;1668;49.648;8.570;2023-07-30T13:12:41;3.90;;;1.90;;
3311;SDS011;1668;49.648;8.570;2023-07-30T13:15:09;5.23;;;1.57;;
3311;SDS011;1668;49.648;8.570;2023-07-30T13:17:37;5.03;;;1.80;;
3311;SDS011;1668;49.648;8.570;2023-07-30T13:20:04;2.90;;;1.37;;
3311;SDS011;1668;49.648;8.570;2023-07-30T13:22:32;2.87;;;1.53;;
3311;SDS011;1668;49.648;8.570;2023-07-30T13:24:58;2.47;;;1.40;;
3311;SDS011;1668;49.648;8.570;2023-07-30T13:27:25;5.80;;;1.73;;
3311;SDS011;1668;49.648;8.570;2023-07-30T13:29:52;7.87;;;1.70;;
3311;SDS011;1668;49.648;8.570;2023-07-30T13:32:20;6.37;;;1.70;;
3311;SDS011;1668;49.648;8.570;2023-07-30T13:34:47;3.20;;;1.60;;
3311;SDS011;1668;49.648;8.570;2023-07-30T13:37:14;5.40;;;1.43;;
3311;SDS011;1668;49.648;8.570;2023-07-30T13:39:41;4.17;;;1.50;;
3311;SDS011;1668;49.648;8.570;2023-07-30T13:42:08;3.53;;;1.40;;
3311;SDS011;1668;49.648;8.570;2023-07-30T13:44:35;4.07;;;1.80;;
3311;SDS011;1668;49.648;8.570;2023-07-30T13:47:01;4.57;;;1.73;;
3311;SDS011;1668;49.648;8.570;2023-07-30T13:49:30;4.63;;;1.70;;
3311;SDS011;1668;49.648;8.570;2023-07-30T13:51:56;3.37;;;1.23;;
3311;SDS011;1668;49.648;8.570;2023-07-30T13:54:23;3.00;;;1.57;;
3311;SDS011;1668;49.648;8.570;2023-07-30T13:56:50;3.50;;;1.53;;
3311;SDS011;1668;49.648;8.570;2023-07-30T13:59:17;3.70;;;1.40;;
3311;SDS011;1668;49.648;8.570;2023-07-30T14:01:44;5.30;;;1.87;;
3311;SDS011;1668;49.648;8.570;2023-07-30T14:04:10;3.27;;;1.80;;
3311;SDS011;1668;49.648;8.570;2023-07-30T14:06:39;6.23;;;1.70;;
3311;SDS011;1668;49.648;8.570;2023-07-30T14:09:05;4.10;;;1.70;;
3311;SDS011;1668;49.648;8.570;2023-07-30T14:11:32;3.37;;;1.40;;
3311;SDS011;1668;49.648;8.570;2023-07-30T14:14:00;4.50;;;1.33;;
3311;SDS011;1668;49.648;8.570;2023-07-30T14:16:27;3.03;;;1.53;;
3311;SDS011;1668;49.648;8.570;2023-07-30T14:18:54;4.70;;;1.67;;
3311;SDS011;1668;49.648;8.570;2023-07-30T14:21:21;4.47;;;1.93;;
3311;SDS011;1668;49.648;8.570;2023-07-30T14:23:49;5.53;;;1.67;;
3311;SDS011;1668;49.648;8.570;2023-07-30T14:26:16;4.10;;;1.43;;
3311;SDS011;1668;49.648;8.570;2023-07-30T14:28:43;3.23;;;1.40;;
3311;SDS011;1668;49.648;8.570;2023-07-30T14:31:10;5.10;;;1.87;;
3311;SDS011;1668;49.648;8.570;2023-07-30T14:33:37;4.70;;;1.47;;
3311;SDS011;1668;49.648;8.570;2023-07-30T14:36:04;5.13;;;1.50;;
3311;SDS011;1668;49.648;8.570;2023-07-30T14:38:31;3.83;;;1.40;;
3311;SDS011;1668;49.648;8.570;2023-07-30T14:41:00;6.70;;;1.40;;
3311;SDS011;1668;49.648;8.570;2023-07-30T14:43:27;7.40;;;1.97;;
3311;SDS011;1668;49.648;8.570;2023-07-30T14:45:54;4.90;;;1.53;;
3311;SDS011;1668;49.648;8.570;2023-07-30T14:48:21;5.10;;;1.40;;
3311;SDS011;1668;49.648;8.570;2023-07-30T14:50:48;2.77;;;1.57;;
3311;SDS011;1668;49.648;8.570;2023-07-30T14:53:16;3.00;;;1.40;;
3311;SDS011;1668;49.648;8.570;2023-07-30T14:55:42;3.40;;;1.40;;
3311;SDS011;1668;49.648;8.570;2023-07-30T14:58:11;5.53;;;1.67;;
3311;SDS011;1668;49.648;8.570;2023-07-30T15:00:38;3.63;;;1.60;;
3311;SDS011;1668;49.648;8.570;2023-07-30T15:03:05;4.60;;;1.83;;
3311;SDS011;1668;49.648;8.570;2023-07-30T15:05:32;4.73;;;1.47;;
3311;SDS011;1668;49.648;8.570;2023-07-30T15:07:59;3.37;;;1.37;;
3311;SDS011;1668;49.648;8.570;2023-07-30T15:10:27;4.30;;;1.70;;
3311;SDS011;1668;49.648;8.570;2023-07-30T15:12:54;3.00;;;1.50;;
3311;SDS011;1668;49.648;8.570;2023-07-30T15:15:22;4.40;;;1.57;;
3311;SDS011;1668;49.648;8.570;2023-07-30T15:17:49;2.70;;;1.40;;